createdAt,value
2022-12-27T00:02:28.196Z,101337.88
2022-12-27T00:10:03.641Z,101344.53
2022-12-27T00:17:37.476Z,101373.16
2022-12-27T00:25:12.770Z,101382.72
2022-12-27T00:32:46.730Z,101390.47
2022-12-27T00:40:21.890Z,101391.06
2022-12-27T00:47:55.833Z,101395.75
2022-12-27T00:55:31.215Z,101397.00
2022-12-27T01:03:05.072Z,101407.75
2022-12-27T01:10:42.005Z,101423.16
2022-12-27T01:18:15.889Z,101427.06
2022-12-27T01:25:52.322Z,101450.34
2022-12-27T01:33:26.193Z,101457.16
2022-12-27T01:41:21.500Z,101458.47
2022-12-27T01:48:55.657Z,101467.72
2022-12-27T01:56:32.979Z,101464.97
2022-12-27T02:04:09.995Z,101472.81
2022-12-27T02:11:56.447Z,101471.72
2022-12-27T02:19:40.367Z,101477.69
2022-12-27T02:27:30.751Z,101490.00
2022-12-27T02:35:15.840Z,101491.72
2022-12-27T02:43:09.973Z,101497.50
2022-12-27T02:51:15.063Z,101505.44
2022-12-27T02:59:04.389Z,101511.88
2022-12-27T03:06:53.876Z,101519.88
2022-12-27T03:14:51.006Z,101527.72
2022-12-27T03:22:47.644Z,101536.31
2022-12-27T03:30:39.835Z,101539.69
2022-12-27T03:38:15.981Z,101547.53
2022-12-27T03:46:14.345Z,101551.97
2022-12-27T03:53:53.322Z,101548.25
2022-12-27T04:01:27.284Z,101550.16
2022-12-27T04:09:20.371Z,101551.31
2022-12-27T04:17:11.588Z,101552.91
2022-12-27T04:25:04.636Z,101561.00
2022-12-27T04:32:55.975Z,101550.44
2022-12-27T04:40:48.697Z,101558.34
2022-12-27T04:48:39.818Z,101563.72
2022-12-27T04:56:15.190Z,101569.16
2022-12-27T05:03:51.940Z,101563.06
2022-12-27T05:11:45.297Z,101566.44
2022-12-27T05:19:19.467Z,101562.78
2022-12-27T05:26:57.011Z,101575.91
2022-12-27T05:34:31.866Z,101587.22
2022-12-27T05:42:07.927Z,101599.50
2022-12-27T05:49:42.046Z,101602.22
2022-12-27T05:57:17.562Z,101605.97
2022-12-27T06:04:51.645Z,101624.47
2022-12-27T06:12:26.846Z,101623.63
2022-12-27T06:20:00.704Z,101621.56
2022-12-27T06:27:36.325Z,101639.94
2022-12-27T06:35:11.892Z,101642.16
2022-12-27T06:42:47.053Z,101652.72
2022-12-27T06:50:21.305Z,101650.06
2022-12-27T06:57:56.724Z,101652.63
2022-12-27T07:05:30.894Z,101658.72
2022-12-27T07:13:06.194Z,101667.47
2022-12-27T07:20:39.988Z,101678.94
2022-12-27T07:28:15.456Z,101692.50
2022-12-27T07:35:49.500Z,101703.25
2022-12-27T07:43:24.892Z,101703.25
2022-12-27T07:50:59.001Z,101721.34
2022-12-27T07:58:37.255Z,101725.44
2022-12-27T08:06:22.551Z,101727.34
2022-12-27T08:13:58.308Z,101715.28
2022-12-27T08:21:32.300Z,101726.38
2022-12-27T08:29:07.609Z,101742.56
2022-12-27T08:36:57.209Z,101736.09
2022-12-27T08:44:32.551Z,101732.22
2022-12-27T08:52:06.822Z,101739.84
2022-12-27T08:59:42.298Z,101746.47
2022-12-27T09:07:16.460Z,101752.09
2022-12-27T09:14:51.649Z,101754.28
2022-12-27T09:22:25.534Z,101765.84
2022-12-27T09:30:00.744Z,101779.47
2022-12-27T09:37:35.784Z,101787.19
2022-12-27T09:45:15.463Z,101773.63
2022-12-27T09:52:58.075Z,101795.22
2022-12-27T10:00:35.159Z,101779.66
2022-12-27T10:08:26.059Z,101790.31
2022-12-27T10:16:17.190Z,101792.59
2022-12-27T10:23:57.164Z,101784.06
2022-12-27T10:31:33.467Z,101777.38
2022-12-27T10:39:16.960Z,101808.66
2022-12-27T10:46:53.964Z,101814.78
2022-12-27T10:54:29.911Z,101813.88
2022-12-27T11:02:19.572Z,101806.00
2022-12-27T11:10:07.381Z,101823.91
2022-12-27T11:17:45.911Z,101827.34
2022-12-27T11:25:20.753Z,101811.63
2022-12-27T11:32:56.748Z,101825.94
2022-12-27T11:40:35.080Z,101852.69
2022-12-27T11:48:22.300Z,101850.47
2022-12-27T11:56:14.279Z,101830.75
2022-12-27T12:04:20.434Z,101845.56
2022-12-27T12:12:12.826Z,101833.66
2022-12-27T12:20:23.882Z,101835.81
2022-12-27T12:28:47.191Z,101839.72
2022-12-27T12:36:33.763Z,101844.13
2022-12-27T12:44:48.528Z,101852.91
2022-12-27T12:52:53.904Z,101859.59
2022-12-27T13:00:44.628Z,101859.13
2022-12-27T13:08:26.813Z,101861.84
2022-12-27T13:16:17.792Z,101866.16
2022-12-27T13:24:02.144Z,101879.34
2022-12-27T13:31:45.660Z,101883.56
2022-12-27T13:39:37.100Z,101884.25
2022-12-27T13:47:35.249Z,101884.09
2022-12-27T13:55:38.047Z,101889.31
2022-12-27T14:03:44.351Z,101907.94
2022-12-27T14:11:31.814Z,101906.47
2022-12-27T14:19:24.436Z,101916.75
2022-12-27T14:27:55.958Z,101925.34
2022-12-27T14:36:10.074Z,101922.44
2022-12-27T14:44:25.200Z,101935.44
2022-12-27T14:52:24.936Z,101931.91
2022-12-27T15:00:04.698Z,101937.84
2022-12-27T15:07:58.962Z,101941.75
2022-12-27T15:15:55.298Z,101950.06
2022-12-27T15:23:37.299Z,101959.22
2022-12-27T15:31:22.455Z,101959.53
2022-12-27T15:38:56.825Z,101950.34
2022-12-27T15:47:07.871Z,101938.16
2022-12-27T15:54:59.054Z,101931.44
2022-12-27T16:02:39.121Z,101937.78
2022-12-27T16:10:50.673Z,101938.16
2022-12-27T16:18:48.047Z,101935.16
2022-12-27T16:26:25.464Z,101968.22
2022-12-27T16:34:11.794Z,101959.81
2022-12-27T16:42:03.258Z,101954.09
2022-12-27T16:50:01.931Z,101955.72
2022-12-27T16:57:42.161Z,101965.03
2022-12-27T17:05:41.926Z,101968.41
2022-12-27T17:13:28.384Z,101959.22
2022-12-27T17:21:08.260Z,101959.91
2022-12-27T17:28:52.516Z,101963.03
2022-12-27T17:36:44.458Z,101960.66
2022-12-27T17:44:40.781Z,101968.31
2022-12-27T17:52:39.480Z,101959.63
2022-12-27T18:00:26.037Z,101960.97
2022-12-27T18:08:07.264Z,101966.72
2022-12-27T18:15:46.190Z,101965.72
2022-12-27T18:23:21.660Z,101968.97
2022-12-27T18:31:01.478Z,101962.72
2022-12-27T18:38:41.224Z,101952.75
2022-12-27T18:46:18.308Z,101942.63
2022-12-27T18:53:53.730Z,101947.09
2022-12-27T19:01:31.944Z,101947.53
2022-12-27T19:09:07.231Z,101948.16
2022-12-27T19:16:41.171Z,101940.84
2022-12-27T19:24:32.479Z,101926.19
2022-12-27T19:32:10.075Z,101915.88
2022-12-27T19:39:48.194Z,101920.97
2022-12-27T19:47:22.410Z,101928.78
2022-12-27T19:55:02.700Z,101929.72
2022-12-27T20:02:36.651Z,101922.63
2022-12-27T20:10:17.881Z,101918.34
2022-12-27T20:17:52.341Z,101901.91
2022-12-27T20:25:27.466Z,101908.06
2022-12-27T20:33:02.809Z,101906.69
2022-12-27T20:40:39.076Z,101890.19
2022-12-27T20:48:13.012Z,101904.09
2022-12-27T20:55:59.231Z,101883.00
2022-12-27T21:03:33.252Z,101886.91
2022-12-27T21:11:10.296Z,101874.66
2022-12-27T21:18:45.719Z,101872.41
2022-12-27T21:26:23.623Z,101866.38
2022-12-27T21:33:57.903Z,101855.34
2022-12-27T21:41:35.171Z,101861.75
2022-12-27T21:49:10.699Z,101867.22
2022-12-27T21:56:45.932Z,101865.66
2022-12-27T22:04:20.941Z,101846.59
2022-12-27T22:11:56.266Z,101840.97
2022-12-27T22:19:30.209Z,101830.69
2022-12-27T22:27:05.464Z,101822.84
2022-12-27T22:34:39.989Z,101801.75
2022-12-27T22:42:15.523Z,101799.28
2022-12-27T22:49:49.447Z,101804.47
2022-12-27T22:57:24.779Z,101791.38
2022-12-27T23:04:58.634Z,101780.25
2022-12-27T23:12:34.011Z,101763.97
2022-12-27T23:20:09.560Z,101761.84
2022-12-27T23:27:44.880Z,101752.84
2022-12-27T23:35:19.214Z,101738.47
2022-12-27T23:42:54.640Z,101743.19
2022-12-27T23:50:28.580Z,101728.31
2022-12-27T23:58:03.920Z,101719.13
